« Back
NWS Peachtree City, Ga » Text Product » ATL Terminal Aerodrome Forecast


Printer-friendly Version
Current Version              Previous Versions:   1  2  3  4  5  6  7  8  9  

Terminal Aerodrome Forecast

493
FTUS42 KFFC 311121
TAFATL
TAF
KATL 311121Z 3112/0118 32005KT P6SM SKC
     FM311400 21005KT P6SM SCT040
     FM311700 25012KT P6SM VCSH BKN040
      TEMPO 3119/3123 -TSRA BKN025CB
     FM010200 26006KT P6SM SCT040 BKN150
     FM010900 29005KT P6SM FEW012
     FM011400 31006KT P6SM SCT040=

USA.gov is the U.S. government's official web portal to all federal, state and local government web resources and services.